Aviation Digital Data Service (ADDS)

Output produced by METARs form (1327 UTC 25 May 2015)
found at http://aviationweather.gov/adds/metars/
 
METAR text: KSPB 251253Z AUTO 00000KT 10SM OVC025 11/08 A3003 RMK AO2 SLP167 T01110083
Conditions at: KSPB (SCAPPOOSE , OR, US) observed 1253 UTC 25 May 2015
Temperature: 11.1°C (52°F)
Dewpoint: 8.3°C (47°F) [RH = 83%]
Pressure (altimeter): 30.03 inches Hg (1017.0 mb)
[Sea-level pressure: 1016.7 mb]
Winds: calm
Visibility: 10 or more miles (16+ km)
Ceiling: 2500 feet AGL
Clouds: overcast cloud deck at 2500 feet AGL
Weather: automated observation with no human augmentation;
there may or may not be significant weather present at this time

METAR text: KSPB 251153Z AUTO 28004KT 10SM OVC023 10/08 A3002 RMK AO2 SLP165 T01000078 10117 20083 55003
Conditions at: KSPB (SCAPPOOSE , OR, US) observed 1153 UTC 25 May 2015
Temperature: 10.0°C (50°F)
Dewpoint: 7.8°C (46°F) [RH = 86%]
Pressure (altimeter): 30.02 inches Hg (1016.7 mb)
[Sea-level pressure: 1016.5 mb]
Winds: from the W (280 degrees) at 5 MPH (4 knots; 2.1 m/s)
Visibility: 10 or more miles (16+ km)
Ceiling: 2300 feet AGL
Clouds: overcast cloud deck at 2300 feet AGL
Weather: automated observation with no human augmentation;
there may or may not be significant weather present at this time